Time;durP1;ratioP1;P1;durP2;ratioP2;P2;SDS_P1;SDS_P2;PMS_P1;PMS_P2;Temp;Humidity;BMP_temperature;BMP_pressure;BME280_temperature;BME280_humidity;BME280_pressure;Samples;Min_cycle;Max_cycle;Signal;HPM_P1;HPM_P2
2022/08/31 00:08:26;;;;;;;;;;;;;;;;;;21174116;28;19923;-53
2022/08/31 00:18:28;;;;;;;;;;;;;;;;;;21173181;28;19923;-59
2022/08/31 00:28:30;;;;;;;;;;;;;;;;;;21171967;28;19924;-58
2022/08/31 00:38:32;;;;;;;;;;;;;;;;;;21171707;28;19935;-57
2022/08/31 00:48:34;;;;;;;;;;;;;;;;;;21170797;28;20395;-53
2022/08/31 00:58:36;;;;;;;;;;;;;;;;;;21169785;28;19923;-54
2022/08/31 01:08:38;;;;;;;;;;;;;;;;;;21168773;28;20040;-57
2022/08/31 01:18:40;;;;;;;;;;;;;;;;;;21169529;28;19969;-60
2022/08/31 01:28:42;;;;;;;;;;;;;;;;;;21167346;28;20037;-53
2022/08/31 01:38:45;;;;;;;;;;;;;;;;;;21167897;28;19930;-60
2022/08/31 01:48:49;;;;;;;;;;;;;;;;;;21166995;28;19967;-61
2022/08/31 01:58:52;;;;;;;;;;;;;;;;;;21165186;28;20015;-59
2022/08/31 02:08:56;;;;;;;;;;;;;;;;;;21164316;28;20018;-53
2022/08/31 02:18:58;;;;;;;;;;;;;;;;;;21163341;28;19954;-54
2022/08/31 02:29:01;;;;;;;;;;;;;;;;;;21163648;28;20018;-59
2022/08/31 02:39:04;;;;;;;;;;;;;;;;;;21163203;28;20368;-58
2022/08/31 02:49:06;;;;;;;;;;;;;;;;;;21162425;28;19969;-53
2022/08/31 02:59:09;;;;;;;;;;;;;;;;;;21163164;28;19924;-58
2022/08/31 03:09:12;;;;;;;;;;;;;;;;;;21161889;28;19966;-58
2022/08/31 03:19:14;;;;;;;;;;;;;;;;;;21162231;28;20448;-58
2022/08/31 03:29:16;;;;;;;;;;;;;;;;;;21170460;28;19962;-54
2022/08/31 03:39:18;;;;;;;;;;;;;;;;;;21177581;28;20349;-61
2022/08/31 03:49:19;;;;;;;;;;;;;;;;;;21176709;28;19924;-62
2022/08/31 03:59:21;;;;;;;;;;;;;;;;;;21175652;28;20436;-55
2022/08/31 04:09:26;;;;;;;;;;;;;;;;;;21174132;28;20202;-60
2022/08/31 04:19:27;;;;;;;;;;;;;;;;;;21173334;28;20375;-61
2022/08/31 04:29:30;;;;;;;;;;;;;;;;;;21172593;28;19932;-60
2022/08/31 04:39:32;;;;;;;;;;;;;;;;;;21170830;28;20292;-53
2022/08/31 04:49:37;;;;;;;;;;;;;;;;;;21172155;28;19924;-60
2022/08/31 04:59:38;;;;;;;;;;;;;;;;;;21172039;28;19923;-61
2022/08/31 05:09:40;;;;;;;;;;;;;;;;;;21169955;28;19923;-59
2022/08/31 05:19:43;;;;;;;;;;;;;;;;;;21168829;28;19971;-59
2022/08/31 05:29:45;;;;;;;;;;;;;;;;;;21167814;28;19924;-60
2022/08/31 05:39:47;;;;;;;;;;;;;;;;;;21159244;28;20002;-60
2022/08/31 05:49:49;;;;;;;;;;;;;;;;;;21169116;28;19971;-61
2022/08/31 05:59:51;;;;;;;;;;;;;;;;;;21168051;28;19924;-55
2022/08/31 06:09:53;;;;;;;;;;;;;;;;;;21167386;28;20329;-56
2022/08/31 06:19:56;;;;;;;;;;;;;;;;;;21164386;28;20109;-61
2022/08/31 06:30:00;;;;;;;;;;;;;;;;;;21163725;28;19923;-54
2022/08/31 06:40:02;;;;;;;;;;;;;;;;;;21163328;28;19928;-54
2022/08/31 06:50:05;;;;;;;;;;;;;;;;;;21162211;28;19924;-57
2022/08/31 07:00:07;;;;;;;;;;;;;;;;;;21163240;28;19934;-55
2022/08/31 07:10:09;;;;;;;;;;;;;;;;;;21177761;28;20307;-58
2022/08/31 07:20:11;;;;;;;;;;;;;;;;;;21177828;28;19950;-54
2022/08/31 07:30:13;;;;;;;;;;;;;;;;;;21176570;28;19969;-55
2022/08/31 07:50:40;;;;;;;;;;;;;;;;;;21175625;28;19923;-55
2022/08/31 08:00:42;;;;;;;;;;;;;;;;;;21174713;28;19974;-58
2022/08/31 08:10:46;;;;;;;;;;;;;;;;;;21174728;28;19931;-60
2022/08/31 08:20:48;;;;;;;;;;;;;;;;;;21172493;28;20295;-61
2022/08/31 08:30:53;;;;;;;;;;;;;;;;;;21172003;28;20276;-54
2022/08/31 08:40:55;;;;;;;;;;;;;;;;;;21172833;28;20394;-61
2022/08/31 08:50:57;;;;;;;;;;;;;;;;;;21171027;28;19924;-55
2022/08/31 09:01:00;;;;;;;;;;;;;;;;;;21171996;28;20033;-62
2022/08/31 09:11:03;;;;;;;;;;;;;;;;;;21170091;28;19928;-59
2022/08/31 09:21:05;;;;;;;;;;;;;;;;;;21169074;28;19976;-61
2022/08/31 09:31:07;;;;;;;;;;;;;;;;;;21167806;28;19924;-56
2022/08/31 09:41:10;;;;;;;;;;;;;;;;;;21166375;28;20283;-57
2022/08/31 09:51:13;;;;;;;;;;;;;;;;;;21166164;28;20303;-60
2022/08/31 10:01:14;;;;;;;;;;;;;;;;;;21165185;28;20010;-59
2022/08/31 10:11:16;;;;;;;;;;;;;;;;;;21163978;28;20296;-59
2022/08/31 10:21:20;;;;;;;;;;;;;;;;;;21145982;28;19924;-58
2022/08/31 10:31:22;;;;;;;;;;;;;;;;;;21162746;28;19959;-59
2022/08/31 10:41:26;;;;;;;;;;;;;;;;;;21161543;28;19923;-61
2022/08/31 10:51:29;;;;;;;;;;;;;;;;;;21163057;28;19934;-62
2022/08/31 11:01:31;;;;;;;;;;;;;;;;;;21163097;28;19923;-63
2022/08/31 11:11:34;;;;;;;;;;;;;;;;;;21162840;28;19935;-58
2022/08/31 11:21:36;;;;;;;;;;;;;;;;;;21160904;28;19981;-62
2022/08/31 11:31:39;;;;;;;;;;;;;;;;;;21162180;28;19931;-58
2022/08/31 11:41:45;;;;;;;;;;;;;;;;;;21160670;28;19932;-57
2022/08/31 11:51:47;;;;;;;;;;;;;;;;;;21168203;28;19927;-59
2022/08/31 12:01:49;;;;;;;;;;;;;;;;;;21174794;28;19928;-54
2022/08/31 12:11:50;;;;;;;;;;;;;;;;;;21174263;28;19927;-54
2022/08/31 12:32:12;;;;;;;;;;;;;;;;;;21171528;28;20018;-55
2022/08/31 12:42:13;;;;;;;;;;;;;;;;;;21173688;28;20018;-59
2022/08/31 12:52:15;;;;;;;;;;;;;;;;;;21170955;28;19923;-56
2022/08/31 13:02:19;;;;;;;;;;;;;;;;;;21170971;28;19981;-54
2022/08/31 13:12:21;;;;;;;;;;;;;;;;;;21182716;28;19924;-57
2022/08/31 13:22:22;;;;;;;;;;;;;;;;;;21173438;28;19928;-62
2022/08/31 13:32:29;;;;;;;;;;;;;;;;;;21169346;28;19931;-60
2022/08/31 13:42:31;;;;;;;;;;;;;;;;;;21166190;28;19931;-61
2022/08/31 13:52:33;;;;;;;;;;;;;;;;;;21166481;28;19923;-59
2022/08/31 14:02:37;;;;;;;;;;;;;;;;;;21165328;28;20284;-62
2022/08/31 14:12:39;;;;;;;;;;;;;;;;;;21164118;28;19924;-63
2022/08/31 14:22:45;;;;;;;;;;;;;;;;;;21164308;28;20022;-54
2022/08/31 14:32:46;;;;;;;;;;;;;;;;;;21166028;28;19930;-61
2022/08/31 14:42:48;;;;;;;;;;;;;;;;;;21166289;28;19923;-60
2022/08/31 14:52:56;;;;;;;;;;;;;;;;;;21163254;28;20346;-58
2022/08/31 15:02:59;;;;;;;;;;;;;;;;;;21162335;28;20253;-57
2022/08/31 15:13:04;;;;;;;;;;;;;;;;;;21162294;28;19927;-60
2022/08/31 15:23:07;;;;;;;;;;;;;;;;;;21162960;28;19931;-60
2022/08/31 15:33:09;;;;;;;;;;;;;;;;;;21176933;28;19927;-60
2022/08/31 15:43:14;;;;;;;;;;;;;;;;;;21177436;28;19997;-61
2022/08/31 15:53:15;;;;;;;;;;;;;;;;;;21177077;28;19923;-60
2022/08/31 16:03:17;;;;;;;;;;;;;;;;;;21175580;28;19927;-61
2022/08/31 16:13:19;;;;;;;;;;;;;;;;;;21174391;28;19923;-54
2022/08/31 16:23:23;;;;;;;;;;;;;;;;;;21172953;28;19978;-60
2022/08/31 16:33:25;;;;;;;;;;;;;;;;;;21171537;28;19966;-59
2022/08/31 16:43:27;;;;;;;;;;;;;;;;;;21171002;28;20074;-55
2022/08/31 16:53:29;;;;;;;;;;;;;;;;;;21170993;28;20010;-60
2022/08/31 17:03:30;;;;;;;;;;;;;;;;;;21169204;28;20072;-60
2022/08/31 17:13:32;;;;;;;;;;;;;;;;;;21169002;28;20320;-62
2022/08/31 17:23:34;;;;;;;;;;;;;;;;;;21167753;28;19969;-62
2022/08/31 17:33:36;;;;;;;;;;;;;;;;;;21167154;28;19928;-54
2022/08/31 17:43:38;;;;;;;;;;;;;;;;;;21166702;28;19924;-60
2022/08/31 17:53:40;;;;;;;;;;;;;;;;;;21167914;28;19924;-54
2022/08/31 18:03:42;;;;;;;;;;;;;;;;;;21166524;28;20000;-53
2022/08/31 18:13:44;;;;;;;;;;;;;;;;;;21164175;28;19931;-54
2022/08/31 18:23:46;;;;;;;;;;;;;;;;;;21164242;28;19977;-58
2022/08/31 18:33:50;;;;;;;;;;;;;;;;;;21162773;28;20014;-58
2022/08/31 18:54:14;;;;;;;;;;;;;;;;;;21165336;28;20053;-52
2022/08/31 19:04:16;;;;;;;;;;;;;;;;;;21176024;28;19923;-53
2022/08/31 19:14:18;;;;;;;;;;;;;;;;;;21180501;28;20384;-56
2022/08/31 19:24:21;;;;;;;;;;;;;;;;;;21178609;28;19924;-52
2022/08/31 19:34:23;;;;;;;;;;;;;;;;;;21177480;28;19939;-54
2022/08/31 19:44:26;;;;;;;;;;;;;;;;;;21177602;28;19924;-58
2022/08/31 19:54:28;;;;;;;;;;;;;;;;;;21176169;28;20387;-58
2022/08/31 20:04:32;;;;;;;;;;;;;;;;;;21148170;28;19972;-60
2022/08/31 20:14:34;;;;;;;;;;;;;;;;;;21088989;28;19970;-60
2022/08/31 20:24:37;;;;;;;;;;;;;;;;;;21089057;28;19928;-54
2022/08/31 20:34:39;;;;;;;;;;;;;;;;;;21087891;28;19960;-56
2022/08/31 20:44:45;;;;;;;;;;;;;;;;;;21117625;28;19924;-56
2022/08/31 20:54:47;;;;;;;;;;;;;;;;;;21172244;28;19931;-58
2022/08/31 21:04:49;;;;;;;;;;;;;;;;;;21200005;27;19927;-61
2022/08/31 21:14:54;;;;;;;;;;;;;;;;;;21258783;27;19923;-60
2022/08/31 21:24:58;;;;;;;;;;;;;;;;;;21254476;27;20014;-61
2022/08/31 21:35:00;;;;;;;;;;;;;;;;;;21254014;27;19931;-57
2022/08/31 21:45:02;;;;;;;;;;;;;;;;;;21256081;27;19931;-56
2022/08/31 21:55:06;;;;;;;;;;;;;;;;;;21254824;27;19928;-57
2022/08/31 22:05:11;;;;;;;;;;;;;;;;;;21251342;27;20344;-54
2022/08/31 22:15:15;;;;;;;;;;;;;;;;;;21251046;27;19923;-59
2022/08/31 22:25:18;;;;;;;;;;;;;;;;;;21248809;27;19930;-62
2022/08/31 22:35:19;;;;;;;;;;;;;;;;;;21248847;27;19923;-62
2022/08/31 22:45:23;;;;;;;;;;;;;;;;;;21248769;27;19923;-52
2022/08/31 22:55:25;;;;;;;;;;;;;;;;;;21248769;28;20268;-55
2022/08/31 23:05:27;;;;;;;;;;;;;;;;;;21248018;28;20276;-57
2022/08/31 23:15:29;;;;;;;;;;;;;;;;;;21247200;28;20037;-62
2022/08/31 23:25:31;;;;;;;;;;;;;;;;;;21246367;28;20058;-61
2022/08/31 23:35:33;;;;;;;;;;;;;;;;;;21246972;28;20010;-59
2022/08/31 23:45:36;;;;;;;;;;;;;;;;;;21250358;27;20011;-57
2022/08/31 23:55:38;;;;;;;;;;;;;;;;;;21261004;27;19948;-54
